createdAt,value
2023-03-02T00:00:47.770Z,17.00
2023-03-02T00:01:47.913Z,16.70
2023-03-02T00:02:48.043Z,17.10
2023-03-02T00:03:48.123Z,18.10
2023-03-02T00:04:47.498Z,18.10
2023-03-02T00:05:47.796Z,20.20
2023-03-02T00:06:48.026Z,17.40
2023-03-02T00:07:48.237Z,16.80
2023-03-02T00:08:48.242Z,16.10
2023-03-02T00:09:47.535Z,19.70
2023-03-02T00:10:47.751Z,19.00
2023-03-02T00:11:47.431Z,18.00
2023-03-02T00:12:48.327Z,19.10
2023-03-02T00:13:47.463Z,19.70
2023-03-02T00:14:47.576Z,18.40
2023-03-02T00:15:47.438Z,16.40
2023-03-02T00:16:48.196Z,17.90
2023-03-02T00:17:48.198Z,18.00
2023-03-02T00:18:47.390Z,19.40
2023-03-02T00:19:48.297Z,17.40
2023-03-02T00:20:47.381Z,16.80
2023-03-02T00:21:47.435Z,21.00
2023-03-02T00:22:47.416Z,19.80
2023-03-02T00:23:47.424Z,20.90
2023-03-02T00:24:47.350Z,17.60
2023-03-02T00:25:47.496Z,17.90
2023-03-02T00:26:47.530Z,18.40
2023-03-02T00:27:47.656Z,19.60
2023-03-02T00:28:47.341Z,18.70
2023-03-02T00:29:47.761Z,17.60
2023-03-02T00:30:47.718Z,16.40
2023-03-02T00:31:47.480Z,18.00
2023-03-02T00:32:47.762Z,19.70
2023-03-02T00:33:47.366Z,17.90
2023-03-02T00:34:47.901Z,18.40
2023-03-02T00:35:47.931Z,21.00
2023-03-02T00:36:47.800Z,20.50
2023-03-02T00:37:47.250Z,20.00
2023-03-02T00:38:48.136Z,19.20
2023-03-02T00:39:47.335Z,18.70
2023-03-02T00:40:47.341Z,17.50
2023-03-02T00:41:47.348Z,17.90
2023-03-02T00:42:47.958Z,19.60
2023-03-02T00:43:47.219Z,17.40
2023-03-02T00:44:47.197Z,18.40
2023-03-02T00:45:47.205Z,16.20
2023-03-02T00:46:47.320Z,19.40
2023-03-02T00:47:47.243Z,19.50
2023-03-02T00:48:47.189Z,18.00
2023-03-02T00:49:47.196Z,18.70
2023-03-02T00:50:47.217Z,19.70
2023-03-02T00:51:47.155Z,18.60
2023-03-02T00:52:47.225Z,19.50
2023-03-02T00:53:47.222Z,21.50
2023-03-02T00:54:47.318Z,18.40
2023-03-02T00:55:47.352Z,17.30
2023-03-02T00:56:47.367Z,18.70
2023-03-02T00:57:47.353Z,23.50
2023-03-02T00:58:47.121Z,18.90
2023-03-02T00:59:47.251Z,17.00
2023-03-02T01:00:47.133Z,20.30
2023-03-02T01:01:47.153Z,21.00
2023-03-02T01:02:47.352Z,18.00
2023-03-02T01:03:47.103Z,19.40
2023-03-02T01:04:47.306Z,18.60
2023-03-02T01:05:47.091Z,16.60
2023-03-02T01:06:47.324Z,17.60
2023-03-02T01:07:47.387Z,19.90
2023-03-02T01:08:47.134Z,19.80
2023-03-02T01:09:47.523Z,16.40
2023-03-02T01:10:47.136Z,18.10
2023-03-02T01:11:47.547Z,16.50
2023-03-02T01:12:47.036Z,18.30
2023-03-02T01:13:47.032Z,17.30
2023-03-02T01:14:47.054Z,19.60
2023-03-02T01:15:47.072Z,18.40
2023-03-02T01:16:47.044Z,16.00
2023-03-02T01:17:47.073Z,18.60
2023-03-02T01:18:47.002Z,21.10
2023-03-02T01:19:47.004Z,19.70
2023-03-02T01:20:46.993Z,18.50
2023-03-02T01:21:47.028Z,19.60
2023-03-02T01:22:47.081Z,18.10
2023-03-02T01:23:47.082Z,17.50
2023-03-02T01:24:47.086Z,20.40
2023-03-02T01:25:47.100Z,18.20
2023-03-02T01:26:47.100Z,18.10
2023-03-02T01:27:47.103Z,20.30
2023-03-02T01:28:47.623Z,19.00
2023-03-02T01:29:47.121Z,18.80
2023-03-02T01:30:47.129Z,18.30
2023-03-02T01:31:47.317Z,20.20
2023-03-02T01:32:47.142Z,17.50
2023-03-02T01:33:47.298Z,20.60
2023-03-02T01:34:47.310Z,19.70
2023-03-02T01:35:46.936Z,21.40
2023-03-02T01:36:47.312Z,18.30
2023-03-02T01:37:46.980Z,18.30
2023-03-02T01:38:46.928Z,18.30
2023-03-02T01:39:46.945Z,19.50
2023-03-02T01:40:47.064Z,20.30
2023-03-02T01:41:46.889Z,18.50
2023-03-02T01:42:46.952Z,18.50
2023-03-02T01:43:47.005Z,19.90
2023-03-02T01:44:47.164Z,19.30
2023-03-02T01:45:47.314Z,21.20
2023-03-02T01:46:47.174Z,22.00
2023-03-02T01:47:46.847Z,22.70
2023-03-02T01:48:46.824Z,21.90
2023-03-02T01:49:46.832Z,20.80
2023-03-02T01:50:46.832Z,21.60
2023-03-02T01:51:46.805Z,19.50
2023-03-02T01:52:46.812Z,20.50
2023-03-02T01:53:47.089Z,21.70
2023-03-02T01:54:47.084Z,20.00
2023-03-02T01:55:47.084Z,20.00
2023-03-02T01:56:47.076Z,21.30
2023-03-02T01:57:46.778Z,18.90
2023-03-02T01:58:46.839Z,18.60
2023-03-02T01:59:46.849Z,19.50
2023-03-02T02:00:47.346Z,18.20
2023-03-02T02:01:47.298Z,22.20
2023-03-02T02:02:46.779Z,19.80
2023-03-02T02:03:47.516Z,18.10
2023-03-02T02:04:46.716Z,19.70
2023-03-02T02:05:46.696Z,19.70
2023-03-02T02:06:47.309Z,19.80
2023-03-02T02:07:46.916Z,19.40
2023-03-02T02:08:47.117Z,22.20
2023-03-02T02:09:47.379Z,17.40
2023-03-02T02:10:46.666Z,17.50
2023-03-02T02:11:47.550Z,19.80
2023-03-02T02:12:47.190Z,19.10
2023-03-02T02:13:47.725Z,18.40
2023-03-02T02:14:47.633Z,18.50
2023-03-02T02:15:46.753Z,19.50
2023-03-02T02:16:47.018Z,16.80
2023-03-02T02:19:13.578Z,17.50
2023-03-02T02:20:12.605Z,19.10
2023-03-02T02:21:12.595Z,21.60
2023-03-02T02:22:12.568Z,19.30
2023-03-02T02:23:12.612Z,18.80
2023-03-02T02:24:12.556Z,18.40
2023-03-02T02:25:12.555Z,18.10
2023-03-02T02:26:12.544Z,19.40
2023-03-02T02:27:12.547Z,19.00
2023-03-02T02:28:12.566Z,18.80
2023-03-02T02:29:12.547Z,19.10
2023-03-02T02:30:13.595Z,19.70
2023-03-02T02:31:13.455Z,18.70
2023-03-02T02:32:12.727Z,20.40
2023-03-02T02:33:13.558Z,21.00
2023-03-02T02:34:12.549Z,20.60
2023-03-02T02:35:12.559Z,21.10
2023-03-02T02:36:12.537Z,20.60
2023-03-02T02:37:13.389Z,18.40
2023-03-02T02:38:12.523Z,18.70
2023-03-02T02:39:13.460Z,19.20
2023-03-02T02:40:12.634Z,18.80
2023-03-02T02:41:12.512Z,17.90
2023-03-02T02:42:12.499Z,19.10
2023-03-02T02:43:12.484Z,18.70
2023-03-02T02:44:13.232Z,20.60
2023-03-02T02:45:13.391Z,18.10
2023-03-02T02:46:12.512Z,19.30
2023-03-02T02:47:12.461Z,18.00
2023-03-02T02:48:13.356Z,20.30
2023-03-02T02:49:12.447Z,20.50
2023-03-02T02:50:13.420Z,17.10
2023-03-02T02:51:12.417Z,19.90
2023-03-02T02:52:13.226Z,21.40
2023-03-02T02:53:13.393Z,19.40
2023-03-02T02:54:13.287Z,19.40
2023-03-02T02:55:13.337Z,17.30
2023-03-02T02:56:12.446Z,18.20
2023-03-02T02:57:12.665Z,20.00
2023-03-02T02:58:12.445Z,20.30
2023-03-02T02:59:12.454Z,19.80
2023-03-02T03:00:12.495Z,22.60
2023-03-02T03:01:12.733Z,18.70
2023-03-02T03:02:13.295Z,21.00
2023-03-02T03:03:12.443Z,20.90
2023-03-02T03:04:12.738Z,21.60
2023-03-02T03:05:12.383Z,20.10
2023-03-02T03:06:12.731Z,22.50
2023-03-02T03:07:12.352Z,19.30
2023-03-02T03:08:13.223Z,19.10
2023-03-02T03:09:13.136Z,20.10
2023-03-02T03:10:12.330Z,19.70
2023-03-02T03:11:12.531Z,19.00
2023-03-02T03:12:13.729Z,22.50
2023-03-02T03:13:13.263Z,18.80
2023-03-02T03:14:12.301Z,21.20
2023-03-02T03:15:13.098Z,21.30
2023-03-02T03:16:13.209Z,19.20
2023-03-02T03:17:12.543Z,20.40
2023-03-02T03:18:12.395Z,19.20
2023-03-02T03:19:12.793Z,18.30
2023-03-02T03:20:13.093Z,21.40
2023-03-02T03:21:13.002Z,19.00
2023-03-02T03:22:12.241Z,20.00
2023-03-02T03:23:13.154Z,19.80
2023-03-02T03:24:12.249Z,18.30
2023-03-02T03:25:12.229Z,22.90
2023-03-02T03:26:13.032Z,21.60
2023-03-02T03:27:12.272Z,21.10
2023-03-02T03:28:12.238Z,21.40
2023-03-02T03:29:13.643Z,21.00
2023-03-02T03:30:13.178Z,20.10
2023-03-02T03:31:12.233Z,18.80
2023-03-02T03:32:12.182Z,21.30
2023-03-02T03:33:12.156Z,19.50
2023-03-02T03:34:13.027Z,19.90
2023-03-02T03:35:12.176Z,19.40
2023-03-02T03:36:12.175Z,19.30
2023-03-02T03:37:12.126Z,19.30
2023-03-02T03:38:12.140Z,22.70
2023-03-02T03:39:13.065Z,19.40
2023-03-02T03:40:12.356Z,19.80
2023-03-02T03:41:12.335Z,20.50
2023-03-02T03:42:12.360Z,19.10
2023-03-02T03:43:12.090Z,18.70
2023-03-02T03:44:12.141Z,18.50
2023-03-02T03:45:12.082Z,18.60
2023-03-02T03:46:12.690Z,20.00
2023-03-02T03:47:12.190Z,18.50
2023-03-02T03:48:12.959Z,18.00
2023-03-02T03:49:12.600Z,19.30
2023-03-02T03:50:12.037Z,19.90
2023-03-02T03:51:12.042Z,17.50
2023-03-02T03:52:12.232Z,19.20
2023-03-02T03:53:12.023Z,19.60
2023-03-02T03:54:12.636Z,19.50
2023-03-02T03:55:12.059Z,19.60
2023-03-02T03:56:12.014Z,17.60
2023-03-02T03:57:12.655Z,18.10
2023-03-02T03:58:13.055Z,20.60
2023-03-02T03:59:12.650Z,18.40
2023-03-02T04:00:12.688Z,19.50
2023-03-02T04:01:12.033Z,20.20
2023-03-02T04:02:12.728Z,19.20
2023-03-02T04:03:12.801Z,18.80
2023-03-02T04:04:12.273Z,18.30
2023-03-02T04:05:11.977Z,18.00
2023-03-02T04:06:12.421Z,19.30
2023-03-02T04:07:11.941Z,20.70
2023-03-02T04:08:11.928Z,20.10
2023-03-02T04:09:11.933Z,21.50
2023-03-02T04:10:11.945Z,18.10
2023-03-02T04:11:12.137Z,19.00
2023-03-02T04:12:12.709Z,19.10
2023-03-02T04:13:11.919Z,23.20
2023-03-02T04:14:11.966Z,17.50
2023-03-02T04:15:12.419Z,19.50
2023-03-02T04:16:11.927Z,18.10
2023-03-02T04:17:11.925Z,19.80
2023-03-02T04:18:11.972Z,19.30
2023-03-02T04:19:11.890Z,18.70
2023-03-02T04:20:12.699Z,16.30
2023-03-02T04:21:12.864Z,17.30
2023-03-02T04:22:12.778Z,19.70
2023-03-02T04:23:11.868Z,19.70
2023-03-02T04:24:12.830Z,18.30
2023-03-02T04:25:11.892Z,19.80
2023-03-02T04:26:12.227Z,20.10
2023-03-02T04:27:11.897Z,20.80
2023-03-02T04:28:12.706Z,20.20
2023-03-02T04:29:11.841Z,18.30
2023-03-02T04:30:11.823Z,17.50
2023-03-02T04:31:12.691Z,20.30
2023-03-02T04:32:13.284Z,18.50
2023-03-02T04:33:11.823Z,19.10
2023-03-02T04:34:12.646Z,18.50
2023-03-02T04:35:12.555Z,18.10
2023-03-02T04:36:12.309Z,19.10
2023-03-02T04:37:12.190Z,19.60
2023-03-02T04:38:11.760Z,18.30
2023-03-02T04:39:11.806Z,19.70
2023-03-02T04:40:11.770Z,20.60
2023-03-02T04:41:11.779Z,17.30
2023-03-02T04:42:12.648Z,17.90
2023-03-02T04:43:12.556Z,19.80
2023-03-02T04:44:12.723Z,18.30
2023-03-02T04:45:12.153Z,17.90
2023-03-02T04:46:12.539Z,17.70
2023-03-02T04:47:11.776Z,18.00
2023-03-02T04:48:12.375Z,16.80
2023-03-02T04:49:12.140Z,18.00
2023-03-02T04:50:11.718Z,15.60
2023-03-02T04:51:12.604Z,21.20
2023-03-02T04:52:12.458Z,18.20
2023-03-02T04:53:12.276Z,19.20
2023-03-02T04:54:11.665Z,17.70
2023-03-02T04:55:12.067Z,16.20
2023-03-02T04:56:11.675Z,16.60
2023-03-02T04:57:11.864Z,16.00
2023-03-02T04:58:11.640Z,16.50
2023-03-02T04:59:11.655Z,16.70
2023-03-02T05:00:12.643Z,16.40
2023-03-02T05:01:12.625Z,17.10
2023-03-02T05:02:11.804Z,15.70
2023-03-02T05:03:11.872Z,17.60
2023-03-02T05:04:12.652Z,16.30
2023-03-02T05:05:12.491Z,15.30
2023-03-02T05:06:12.391Z,17.50
2023-03-02T05:07:11.629Z,15.60
2023-03-02T05:08:12.127Z,18.90
2023-03-02T05:09:11.713Z,16.20
2023-03-02T05:10:11.697Z,20.50
2023-03-02T05:11:12.426Z,19.40
2023-03-02T05:12:11.571Z,17.80
2023-03-02T05:13:11.708Z,16.50
2023-03-02T05:14:11.546Z,16.00
2023-03-02T05:15:11.796Z,20.30
2023-03-02T05:16:12.524Z,17.00
2023-03-02T05:17:12.487Z,15.80
2023-03-02T05:18:11.749Z,15.50
2023-03-02T05:19:12.340Z,17.90
2023-03-02T05:20:12.330Z,15.90
2023-03-02T05:21:12.500Z,19.10
2023-03-02T05:22:12.393Z,17.60
2023-03-02T05:23:11.537Z,18.90
2023-03-02T05:24:12.489Z,19.00
2023-03-02T05:25:11.720Z,17.80
2023-03-02T05:26:12.268Z,16.90
2023-03-02T05:27:12.423Z,18.20
2023-03-02T05:28:12.422Z,16.10
2023-03-02T05:29:11.746Z,17.70
2023-03-02T05:30:11.468Z,18.00
2023-03-02T05:31:11.866Z,17.80
2023-03-02T05:32:12.541Z,18.40
2023-03-02T05:33:12.368Z,18.60
2023-03-02T05:34:11.458Z,15.70
2023-03-02T05:35:11.432Z,17.50
2023-03-02T05:36:12.329Z,20.00
2023-03-02T05:37:11.858Z,16.20
2023-03-02T05:38:11.470Z,17.50
2023-03-02T05:39:11.437Z,15.60
2023-03-02T05:40:12.207Z,18.40
2023-03-02T05:41:11.788Z,18.70
2023-03-02T05:42:12.268Z,16.60
2023-03-02T05:43:11.918Z,19.60
2023-03-02T05:44:11.713Z,17.10
2023-03-02T05:45:12.248Z,19.50
2023-03-02T05:46:11.398Z,19.90
2023-03-02T05:47:11.899Z,16.60
2023-03-02T05:48:11.326Z,20.20
2023-03-02T05:49:12.368Z,17.60
2023-03-02T05:50:12.263Z,16.90
2023-03-02T05:51:11.996Z,17.40
2023-03-02T05:52:11.972Z,17.90
2023-03-02T05:53:11.913Z,17.30
2023-03-02T05:54:11.309Z,17.90
2023-03-02T05:55:12.309Z,18.00
2023-03-02T05:56:12.753Z,19.50
2023-03-02T05:57:11.309Z,19.80
2023-03-02T05:58:11.290Z,18.70
2023-03-02T05:59:12.173Z,19.90
2023-03-02T06:00:12.327Z,19.10
2023-03-02T06:01:13.534Z,18.70
2023-03-02T06:02:11.303Z,20.00
2023-03-02T06:03:12.111Z,17.30
2023-03-02T06:04:11.266Z,17.60
2023-03-02T06:05:11.256Z,19.00
2023-03-02T06:06:11.309Z,19.40
2023-03-02T06:07:11.326Z,18.80
2023-03-02T06:08:11.335Z,18.50
2023-03-02T06:09:11.342Z,16.30
2023-03-02T06:10:11.200Z,17.70
2023-03-02T06:11:12.221Z,19.80
2023-03-02T06:12:11.278Z,18.80
2023-03-02T06:13:11.200Z,19.80
2023-03-02T06:14:11.181Z,18.70
2023-03-02T06:15:11.174Z,18.00
2023-03-02T06:16:12.084Z,19.20
2023-03-02T06:17:11.322Z,17.50
2023-03-02T06:18:11.148Z,18.20
2023-03-02T06:19:11.214Z,18.00
2023-03-02T06:20:11.546Z,20.00
2023-03-02T06:21:11.168Z,17.40
2023-03-02T06:22:11.138Z,18.90
2023-03-02T06:23:11.129Z,18.20
2023-03-02T06:24:11.821Z,16.90
2023-03-02T06:25:11.219Z,17.10
2023-03-02T06:26:11.222Z,21.10
2023-03-02T06:27:11.097Z,21.10
2023-03-02T06:28:11.096Z,17.90
2023-03-02T06:29:11.096Z,16.20
2023-03-02T06:30:11.133Z,16.80
2023-03-02T06:31:11.919Z,16.30
2023-03-02T06:32:11.216Z,19.20
2023-03-02T06:33:11.189Z,16.40
2023-03-02T06:34:11.045Z,18.30
2023-03-02T06:35:11.117Z,18.80
2023-03-02T06:36:11.270Z,18.70
2023-03-02T06:37:11.870Z,16.90
2023-03-02T06:38:11.242Z,18.50
2023-03-02T06:39:11.917Z,14.50
2023-03-02T06:40:11.254Z,18.00
2023-03-02T06:41:11.024Z,15.50
2023-03-02T06:42:10.992Z,15.00
2023-03-02T06:43:11.078Z,16.90
2023-03-02T06:44:11.010Z,14.10
2023-03-02T06:45:11.023Z,16.10
2023-03-02T06:46:11.343Z,15.50
2023-03-02T06:47:11.001Z,15.90
2023-03-02T06:48:11.004Z,14.60
2023-03-02T06:49:13.370Z,16.40
2023-03-02T06:50:11.014Z,14.20
2023-03-02T06:51:11.039Z,14.10
2023-03-02T06:52:10.987Z,16.50
2023-03-02T06:53:11.866Z,14.10
2023-03-02T06:54:10.956Z,14.10
2023-03-02T06:55:11.910Z,16.30
2023-03-02T06:56:11.050Z,16.30
2023-03-02T06:57:11.719Z,14.80
2023-03-02T06:58:10.964Z,12.40
2023-03-02T06:59:11.242Z,16.50
2023-03-02T07:00:11.687Z,15.90
2023-03-02T07:01:11.457Z,14.30
2023-03-02T07:02:10.885Z,14.50
2023-03-02T07:03:10.925Z,15.40
2023-03-02T07:04:10.892Z,13.40
2023-03-02T07:05:10.913Z,16.60
2023-03-02T07:06:11.881Z,14.30
2023-03-02T07:07:10.972Z,14.90
2023-03-02T07:08:10.872Z,14.00
2023-03-02T07:09:10.861Z,14.80
2023-03-02T07:10:10.889Z,13.30
2023-03-02T07:11:10.870Z,14.20
2023-03-02T07:12:10.833Z,15.90
2023-03-02T07:13:10.905Z,14.20
2023-03-02T07:14:10.799Z,14.10
2023-03-02T07:15:11.017Z,15.10
2023-03-02T07:16:10.939Z,15.70
2023-03-02T07:17:10.830Z,14.70
2023-03-02T07:18:11.755Z,13.50
2023-03-02T07:19:10.905Z,14.90
2023-03-02T07:20:10.920Z,15.40
2023-03-02T07:21:10.830Z,14.10
2023-03-02T07:22:10.937Z,15.70
2023-03-02T07:23:10.758Z,15.00
2023-03-02T07:24:10.992Z,14.50
2023-03-02T07:25:11.008Z,14.70
2023-03-02T07:26:11.773Z,14.70
2023-03-02T07:27:11.688Z,14.30
2023-03-02T07:28:10.766Z,15.10
2023-03-02T07:29:10.773Z,13.40
2023-03-02T07:30:11.623Z,14.10
2023-03-02T07:31:10.770Z,14.30
2023-03-02T07:32:12.540Z,13.80
2023-03-02T07:33:11.601Z,14.30
2023-03-02T07:34:10.735Z,14.40
2023-03-02T07:35:11.668Z,15.10
2023-03-02T07:36:10.722Z,13.90
2023-03-02T07:37:10.729Z,15.90
2023-03-02T07:38:11.632Z,13.50
2023-03-02T07:39:11.087Z,14.20
2023-03-02T07:40:11.451Z,13.30
2023-03-02T07:41:11.588Z,17.30
2023-03-02T07:42:11.488Z,13.10
2023-03-02T07:43:10.668Z,14.90
2023-03-02T07:44:11.559Z,14.80
2023-03-02T07:45:11.466Z,16.60
2023-03-02T07:46:10.760Z,14.20
2023-03-02T07:47:10.619Z,16.70
2023-03-02T07:48:10.674Z,14.10
2023-03-02T07:49:12.048Z,14.40
2023-03-02T07:50:10.619Z,14.00
2023-03-02T07:51:10.686Z,13.80
2023-03-02T07:52:10.588Z,15.00
2023-03-02T07:53:11.466Z,14.10
2023-03-02T07:54:11.367Z,13.80
2023-03-02T07:55:10.586Z,13.10
2023-03-02T07:56:11.428Z,13.80
2023-03-02T07:57:10.580Z,13.60
2023-03-02T07:58:10.558Z,13.70
2023-03-02T07:59:10.677Z,11.70
2023-03-02T08:00:11.978Z,12.40
2023-03-02T08:01:10.758Z,12.40
2023-03-02T08:02:10.560Z,15.60
2023-03-02T08:03:10.863Z,13.00
2023-03-02T08:04:11.431Z,13.50
2023-03-02T08:05:10.524Z,12.20
2023-03-02T08:06:10.699Z,13.90
2023-03-02T08:07:11.422Z,12.60
2023-03-02T08:08:11.303Z,13.30
2023-03-02T08:09:10.499Z,11.80
2023-03-02T08:10:11.390Z,13.30
2023-03-02T08:11:10.628Z,14.40
2023-03-02T08:12:11.447Z,12.80
2023-03-02T08:13:10.466Z,13.80
2023-03-02T08:14:10.502Z,11.40
2023-03-02T08:15:11.406Z,11.30
2023-03-02T08:16:11.340Z,13.10
2023-03-02T08:17:10.470Z,13.60
2023-03-02T08:18:11.376Z,10.50
2023-03-02T08:19:10.561Z,12.80
2023-03-02T08:20:10.574Z,12.50
2023-03-02T08:21:10.382Z,13.00
2023-03-02T08:22:10.450Z,10.80
2023-03-02T08:23:10.390Z,13.80
2023-03-02T08:24:10.370Z,12.80
2023-03-02T08:25:10.399Z,15.80
2023-03-02T08:26:13.105Z,12.80
2023-03-02T08:27:10.379Z,13.40
2023-03-02T08:28:10.349Z,16.40
2023-03-02T08:29:10.346Z,14.50
2023-03-02T08:30:10.336Z,11.00
2023-03-02T08:31:10.403Z,13.50
2023-03-02T08:32:10.523Z,12.30
2023-03-02T08:33:11.220Z,14.20
2023-03-02T08:34:10.340Z,11.60
2023-03-02T08:35:11.279Z,13.00
2023-03-02T08:36:11.242Z,12.40
2023-03-02T08:37:10.324Z,12.30
2023-03-02T08:38:10.387Z,14.80
2023-03-02T08:39:10.382Z,13.30
2023-03-02T08:40:11.048Z,13.60
2023-03-02T08:41:10.504Z,12.70
2023-03-02T08:42:10.508Z,12.30
2023-03-02T08:43:10.264Z,12.10
2023-03-02T08:44:11.175Z,11.00
2023-03-02T08:45:10.259Z,11.20
2023-03-02T08:46:10.375Z,11.20
2023-03-02T08:47:11.145Z,11.50
2023-03-02T08:48:11.049Z,11.50
2023-03-02T08:49:11.210Z,12.90
2023-03-02T08:50:10.273Z,11.30
2023-03-02T08:51:10.261Z,13.20
2023-03-02T08:52:11.182Z,13.10
2023-03-02T08:53:10.225Z,12.80
2023-03-02T08:54:10.232Z,11.60
2023-03-02T08:55:11.182Z,13.00
2023-03-02T08:56:10.409Z,12.90
2023-03-02T08:57:10.949Z,14.30
2023-03-02T08:58:11.141Z,11.80
2023-03-02T08:59:11.018Z,15.20
2023-03-02T09:00:10.231Z,11.30
2023-03-02T09:01:10.208Z,10.80
2023-03-02T09:02:10.993Z,11.70
2023-03-02T09:03:10.640Z,12.70
2023-03-02T09:04:10.204Z,13.60
2023-03-02T09:05:10.946Z,12.60
2023-03-02T09:06:11.102Z,15.10
2023-03-02T09:07:11.081Z,11.90
2023-03-02T09:08:10.155Z,11.70
2023-03-02T09:09:10.093Z,12.50
2023-03-02T09:10:10.981Z,13.00
2023-03-02T09:11:10.895Z,14.90
2023-03-02T09:12:10.529Z,12.50
2023-03-02T09:14:36.014Z,13.00
2023-03-02T09:15:36.014Z,12.50
2023-03-02T09:16:36.041Z,14.10
2023-03-02T09:17:35.993Z,13.10
2023-03-02T09:18:36.754Z,13.10
2023-03-02T09:19:36.013Z,13.60
2023-03-02T09:20:35.960Z,13.30
2023-03-02T09:21:36.187Z,12.60
2023-03-02T09:22:36.009Z,12.30
2023-03-02T09:23:35.987Z,12.10
2023-03-02T09:24:35.988Z,11.90
2023-03-02T09:25:36.089Z,14.70
2023-03-02T09:26:36.116Z,13.00
2023-03-02T09:27:36.102Z,11.50
2023-03-02T09:28:36.103Z,12.70
2023-03-02T09:29:36.115Z,10.80
2023-03-02T09:30:36.140Z,11.00
2023-03-02T09:31:36.583Z,12.50
2023-03-02T09:32:36.131Z,13.90
2023-03-02T09:33:36.134Z,14.50
2023-03-02T09:34:36.142Z,13.80
2023-03-02T09:35:35.872Z,15.50
2023-03-02T09:36:35.861Z,14.00
2023-03-02T09:37:36.209Z,15.10
2023-03-02T09:38:36.177Z,14.70
2023-03-02T09:39:35.846Z,12.50
2023-03-02T09:40:36.292Z,10.70
2023-03-02T09:41:36.155Z,12.40
2023-03-02T09:42:43.915Z,13.90
2023-03-02T09:43:36.345Z,12.50
2023-03-02T09:44:36.113Z,12.10
2023-03-02T09:45:36.050Z,11.90
2023-03-02T09:46:36.333Z,11.90
2023-03-02T09:47:36.297Z,11.50
2023-03-02T09:48:35.831Z,11.10
2023-03-02T09:49:35.850Z,11.00
2023-03-02T09:50:35.855Z,9.90
2023-03-02T09:51:35.863Z,11.70
2023-03-02T09:52:35.972Z,12.20
2023-03-02T09:53:35.767Z,10.60
2023-03-02T09:54:36.041Z,11.50
2023-03-02T09:55:35.988Z,10.10
2023-03-02T09:56:36.107Z,10.80
2023-03-02T09:57:36.215Z,10.30
2023-03-02T09:58:36.217Z,13.30
2023-03-02T09:59:35.717Z,10.10
2023-03-02T10:00:35.775Z,10.50
2023-03-02T10:01:35.823Z,12.70
2023-03-02T10:02:35.828Z,11.80
2023-03-02T10:03:35.839Z,11.90
2023-03-02T10:04:35.975Z,10.00
2023-03-02T10:05:35.941Z,10.90
2023-03-02T10:06:36.062Z,10.80
2023-03-02T10:07:35.670Z,10.40
2023-03-02T10:08:36.073Z,11.10
2023-03-02T10:09:35.665Z,10.60
2023-03-02T10:10:36.247Z,11.00
2023-03-02T10:11:36.302Z,10.50
2023-03-02T10:12:35.642Z,11.60
2023-03-02T10:13:36.352Z,12.00
2023-03-02T10:14:36.322Z,15.60
2023-03-02T10:15:35.914Z,11.60
2023-03-02T10:16:36.253Z,12.50
2023-03-02T10:17:35.799Z,12.30
2023-03-02T10:18:36.513Z,12.30
2023-03-02T10:19:36.388Z,11.70
2023-03-02T10:20:35.570Z,11.80
2023-03-02T10:21:35.750Z,12.70
2023-03-02T10:22:36.620Z,10.30
2023-03-02T10:23:36.519Z,12.30
2023-03-02T10:24:35.558Z,10.00
2023-03-02T10:25:35.779Z,10.20
2023-03-02T10:26:36.186Z,10.10
2023-03-02T10:27:36.432Z,10.60
2023-03-02T10:28:36.527Z,12.10
2023-03-02T10:29:35.601Z,11.50
2023-03-02T10:30:36.043Z,11.60
2023-03-02T10:31:35.808Z,13.00
2023-03-02T10:32:36.187Z,13.00
2023-03-02T10:33:35.488Z,13.40
2023-03-02T10:34:35.456Z,13.10
2023-03-02T10:35:35.489Z,15.70
2023-03-02T10:36:35.737Z,10.90
2023-03-02T10:37:35.563Z,11.30
2023-03-02T10:38:35.456Z,12.40
2023-03-02T10:39:35.533Z,10.50
2023-03-02T10:40:35.674Z,9.40
2023-03-02T10:41:35.685Z,12.00
2023-03-02T10:42:35.690Z,11.30
2023-03-02T10:43:35.500Z,12.10
2023-03-02T10:44:35.494Z,12.80
2023-03-02T10:45:35.513Z,8.70
2023-03-02T10:46:35.929Z,10.30
2023-03-02T10:47:35.524Z,11.30
2023-03-02T10:48:40.908Z,10.50
2023-03-02T10:49:35.736Z,9.90
2023-03-02T10:50:35.410Z,10.60
2023-03-02T10:51:35.569Z,10.90
2023-03-02T10:52:35.422Z,11.70
2023-03-02T10:53:35.376Z,8.60
2023-03-02T10:54:35.360Z,14.00
2023-03-02T10:55:35.476Z,9.30
2023-03-02T10:56:35.694Z,9.10
2023-03-02T10:57:35.614Z,9.50
2023-03-02T10:58:35.600Z,9.50
2023-03-02T10:59:35.610Z,10.50
2023-03-02T11:00:35.461Z,11.90
2023-03-02T11:01:35.708Z,9.50
2023-03-02T11:02:35.706Z,10.00
2023-03-02T11:03:35.690Z,7.50
2023-03-02T11:04:35.784Z,10.40
2023-03-02T11:05:35.249Z,9.60
2023-03-02T11:06:35.432Z,10.00
2023-03-02T11:07:35.238Z,10.70
2023-03-02T11:08:35.227Z,7.70
2023-03-02T11:09:35.274Z,10.30
2023-03-02T11:10:35.249Z,9.90
2023-03-02T11:11:35.713Z,8.40
2023-03-02T11:12:35.219Z,9.60
2023-03-02T11:13:35.318Z,10.40
2023-03-02T11:14:35.317Z,8.40
2023-03-02T11:15:35.469Z,9.60
2023-03-02T11:16:35.325Z,7.40
2023-03-02T11:17:35.336Z,8.10
2023-03-02T11:18:35.352Z,7.80
2023-03-02T11:19:35.353Z,8.60
2023-03-02T11:20:35.376Z,7.70
2023-03-02T11:21:35.630Z,9.40
2023-03-02T11:22:35.406Z,9.70
2023-03-02T11:23:35.415Z,7.60
2023-03-02T11:24:35.153Z,8.30
2023-03-02T11:25:35.136Z,8.30
2023-03-02T11:26:35.227Z,7.20
2023-03-02T11:27:35.384Z,8.20
2023-03-02T11:28:35.486Z,8.10
2023-03-02T11:29:35.510Z,9.50
2023-03-02T11:30:35.066Z,8.70
2023-03-02T11:31:35.631Z,7.60
2023-03-02T11:32:35.129Z,7.40
2023-03-02T11:33:35.170Z,9.00
2023-03-02T11:34:35.076Z,7.80
2023-03-02T11:35:35.091Z,8.10
2023-03-02T11:36:35.049Z,8.40
2023-03-02T11:37:35.025Z,7.40
2023-03-02T11:38:35.081Z,7.50
2023-03-02T11:39:35.148Z,8.40
2023-03-02T11:40:35.159Z,7.80
2023-03-02T11:41:35.233Z,7.90
2023-03-02T11:42:35.004Z,6.90
2023-03-02T11:43:35.321Z,8.50
2023-03-02T11:44:35.302Z,9.40
2023-03-02T11:45:35.302Z,7.00
2023-03-02T11:46:35.407Z,8.40
2023-03-02T11:47:34.974Z,9.70
2023-03-02T11:48:34.968Z,8.80
2023-03-02T11:49:34.986Z,8.50
2023-03-02T11:50:34.953Z,7.90
2023-03-02T11:51:35.364Z,8.70
2023-03-02T11:52:35.151Z,8.20
2023-03-02T11:53:34.972Z,7.30
2023-03-02T11:54:35.219Z,7.90
2023-03-02T11:55:34.902Z,7.80
2023-03-02T11:56:35.373Z,7.40
2023-03-02T11:57:36.273Z,8.80
2023-03-02T11:58:35.419Z,8.10
2023-03-02T11:59:35.438Z,6.90
2023-03-02T12:00:34.951Z,9.60
2023-03-02T12:01:35.675Z,8.70
2023-03-02T12:02:35.411Z,8.10
2023-03-02T12:03:35.014Z,7.50
2023-03-02T12:04:35.016Z,9.30
2023-03-02T12:05:34.883Z,7.30
2023-03-02T12:06:35.677Z,10.20
2023-03-02T12:07:35.491Z,9.70
2023-03-02T12:08:35.453Z,7.60
2023-03-02T12:09:35.517Z,7.40
2023-03-02T12:10:35.511Z,9.00
2023-03-02T12:11:34.820Z,10.10
2023-03-02T12:12:35.085Z,6.90
2023-03-02T12:13:35.539Z,8.40
2023-03-02T12:14:34.880Z,7.90
2023-03-02T12:15:35.198Z,6.50
2023-03-02T12:16:36.171Z,6.30
2023-03-02T12:17:34.775Z,7.20
2023-03-02T12:18:35.529Z,7.80
2023-03-02T12:19:35.624Z,7.70
2023-03-02T12:20:34.921Z,7.70
2023-03-02T12:21:35.541Z,8.20
2023-03-02T12:22:34.750Z,8.70
2023-03-02T12:23:34.741Z,7.80
2023-03-02T12:24:34.745Z,8.50
2023-03-02T12:25:34.750Z,9.50
2023-03-02T12:26:35.238Z,7.40
2023-03-02T12:27:34.820Z,7.80
2023-03-02T12:28:35.046Z,7.70
2023-03-02T12:29:34.992Z,7.60
2023-03-02T12:30:35.002Z,6.70
2023-03-02T12:31:35.065Z,7.10
2023-03-02T12:32:34.719Z,7.50
2023-03-02T12:33:34.663Z,8.00
2023-03-02T12:34:34.844Z,10.20
2023-03-02T12:35:34.830Z,7.10
2023-03-02T12:36:35.143Z,7.10
2023-03-02T12:37:34.659Z,8.30
2023-03-02T12:38:34.945Z,6.90
2023-03-02T12:39:34.603Z,6.70
2023-03-02T12:40:34.654Z,7.90
2023-03-02T12:41:35.090Z,7.80
2023-03-02T12:42:34.669Z,9.50
2023-03-02T12:43:35.321Z,7.60
2023-03-02T12:44:34.950Z,9.10
2023-03-02T12:45:35.330Z,8.60
2023-03-02T12:46:35.798Z,9.40
2023-03-02T12:47:34.581Z,8.60
2023-03-02T12:48:34.526Z,6.90
2023-03-02T12:49:34.582Z,8.30
2023-03-02T12:50:34.566Z,7.60
2023-03-02T12:51:34.629Z,9.70
2023-03-02T12:52:34.613Z,8.40
2023-03-02T12:53:34.572Z,7.50
2023-03-02T12:54:34.554Z,9.30
2023-03-02T12:55:34.579Z,7.60
2023-03-02T12:56:34.910Z,8.50
2023-03-02T12:57:34.586Z,9.20
2023-03-02T12:58:34.495Z,8.80
2023-03-02T12:59:34.497Z,8.00